createdAt,value
2018-02-03T00:00:51.714Z,10.10
2018-02-03T00:03:21.329Z,10.19
2018-02-03T00:05:50.897Z,10.29
2018-02-03T00:08:20.567Z,10.38
2018-02-03T00:10:49.926Z,10.37
2018-02-03T00:13:19.453Z,10.35
2018-02-03T00:15:49.084Z,10.53
2018-02-03T00:18:18.622Z,10.56
2018-02-03T00:20:47.117Z,10.65
2018-02-03T00:23:15.604Z,10.64
2018-02-03T00:25:44.060Z,10.69
2018-02-03T00:28:12.862Z,10.77
2018-02-03T00:30:41.881Z,10.71
2018-02-03T00:33:10.324Z,10.73
2018-02-03T00:35:38.909Z,10.62
2018-02-03T00:38:07.357Z,10.66
2018-02-03T00:40:36.384Z,10.47
2018-02-03T00:43:04.849Z,10.12
2018-02-03T00:45:33.289Z,9.78
2018-02-03T00:48:02.398Z,9.57
2018-02-03T00:50:31.557Z,9.41
2018-02-03T00:53:00.221Z,9.43
2018-02-03T00:55:29.882Z,9.63
2018-02-03T00:57:59.132Z,9.81
2018-02-03T01:00:28.601Z,9.79
2018-02-03T01:02:57.756Z,9.87
2018-02-03T01:05:26.544Z,9.94
2018-02-03T01:07:55.246Z,10.06
2018-02-03T01:10:24.472Z,9.98
2018-02-03T01:12:54.812Z,10.11
2018-02-03T01:15:24.101Z,10.05
2018-02-03T01:17:53.268Z,10.10
2018-02-03T01:20:22.687Z,10.27
2018-02-03T01:22:52.518Z,10.32
2018-02-03T01:25:22.629Z,10.31
2018-02-03T01:27:51.762Z,10.27
2018-02-03T01:30:20.229Z,10.12
2018-02-03T01:32:48.959Z,10.04
2018-02-03T01:35:18.089Z,10.12
2018-02-03T01:37:47.872Z,10.18
2018-02-03T01:40:17.331Z,10.25
2018-02-03T01:42:45.810Z,10.32
2018-02-03T01:45:14.251Z,10.40
2018-02-03T01:47:53.952Z,10.19
2018-02-03T01:50:22.393Z,10.16
2018-02-03T01:52:51.233Z,10.02
2018-02-03T01:55:19.697Z,10.17
2018-02-03T01:57:48.182Z,10.15
2018-02-03T02:00:16.663Z,10.27
2018-02-03T02:02:45.431Z,10.35
2018-02-03T02:05:13.909Z,10.23
2018-02-03T02:07:42.389Z,10.32
2018-02-03T02:10:11.506Z,10.22
2018-02-03T02:12:39.979Z,10.31
2018-02-03T02:15:08.460Z,10.41
2018-02-03T02:17:36.953Z,10.39
2018-02-03T02:20:05.416Z,10.38
2018-02-03T02:22:33.908Z,10.16
2018-02-03T02:25:02.354Z,10.40
2018-02-03T02:27:31.282Z,10.41
2018-02-03T02:30:00.696Z,10.54
2018-02-03T02:32:29.918Z,10.16
2018-02-03T02:34:58.355Z,10.22
2018-02-03T02:37:26.802Z,10.20
2018-02-03T02:39:55.664Z,10.13
2018-02-03T02:42:24.105Z,10.19
2018-02-03T02:44:52.546Z,10.27
2018-02-03T02:47:21.071Z,10.43
2018-02-03T02:49:49.566Z,10.46
2018-02-03T02:52:18.011Z,10.43
2018-02-03T02:54:46.511Z,10.45
2018-02-03T02:57:14.943Z,10.47
2018-02-03T02:59:44.095Z,10.37
2018-02-03T03:02:12.525Z,10.17
2018-02-03T03:04:41.067Z,10.19
2018-02-03T03:07:09.503Z,10.17
2018-02-03T03:09:38.415Z,10.15
2018-02-03T03:12:06.899Z,10.07
2018-02-03T03:14:35.328Z,10.26
2018-02-03T03:17:03.764Z,10.21
2018-02-03T03:19:32.197Z,10.29
2018-02-03T03:22:00.728Z,10.39
2018-02-03T03:24:29.155Z,10.50
2018-02-03T03:26:57.594Z,10.51
2018-02-03T03:29:26.195Z,10.58
2018-02-03T03:31:54.626Z,10.66
2018-02-03T03:34:23.073Z,10.65
2018-02-03T03:36:51.516Z,10.39
2018-02-03T03:39:19.980Z,10.45
2018-02-03T03:41:48.411Z,10.19
2018-02-03T03:44:16.850Z,10.30
2018-02-03T03:46:45.296Z,10.53
2018-02-03T03:49:14.116Z,10.68
2018-02-03T03:51:42.623Z,10.50
2018-02-03T03:54:11.067Z,10.53
2018-02-03T03:56:39.516Z,10.42
2018-02-03T03:59:08.060Z,10.65
2018-02-03T04:01:36.496Z,10.49
2018-02-03T04:04:05.428Z,10.68
2018-02-03T04:06:33.868Z,10.23
2018-02-03T04:09:02.748Z,10.34
2018-02-03T04:11:31.959Z,10.33
2018-02-03T04:14:00.817Z,10.28
2018-02-03T04:16:29.295Z,10.19
2018-02-03T04:18:57.725Z,10.07
2018-02-03T04:21:26.221Z,10.38
2018-02-03T04:23:54.704Z,10.47
2018-02-03T04:26:23.163Z,10.47
2018-02-03T04:28:51.991Z,10.62
2018-02-03T04:31:20.440Z,10.58
2018-02-03T04:33:48.876Z,10.25
2018-02-03T04:36:17.310Z,10.14
2018-02-03T04:38:45.746Z,9.92
2018-02-03T04:41:14.174Z,9.82
2018-02-03T04:43:42.607Z,9.88
2018-02-03T04:46:11.047Z,10.06
2018-02-03T04:48:39.520Z,10.32
2018-02-03T04:51:07.964Z,10.02
2018-02-03T04:53:36.383Z,9.77
2018-02-03T04:56:04.820Z,9.61
2018-02-03T04:58:33.645Z,9.73
2018-02-03T05:01:02.076Z,9.91
2018-02-03T05:03:30.504Z,9.92
2018-02-03T05:05:58.952Z,9.53
2018-02-03T05:08:27.871Z,9.60
2018-02-03T05:10:56.319Z,9.90
2018-02-03T05:13:25.151Z,9.93
2018-02-03T05:15:53.581Z,9.96
2018-02-03T05:18:22.102Z,9.89
2018-02-03T05:20:50.543Z,9.89
2018-02-03T05:23:18.988Z,9.86
2018-02-03T05:25:47.436Z,10.04
2018-02-03T05:28:15.896Z,9.98
2018-02-03T05:30:44.747Z,10.10
2018-02-03T05:33:13.175Z,9.87
2018-02-03T05:35:42.099Z,9.76
2018-02-03T05:38:10.563Z,9.65
2018-02-03T05:40:38.976Z,9.56
2018-02-03T05:43:07.407Z,9.31
2018-02-03T05:45:36.219Z,9.22
2018-02-03T05:48:04.709Z,9.30
2018-02-03T05:50:33.131Z,9.38
2018-02-03T05:53:01.580Z,9.66
2018-02-03T05:55:30.007Z,9.59
2018-02-03T05:57:59.002Z,9.52
2018-02-03T06:00:27.831Z,9.83
2018-02-03T06:02:56.264Z,9.97
2018-02-03T06:05:24.704Z,10.15
2018-02-03T06:07:53.179Z,10.22
2018-02-03T06:10:21.635Z,10.19
2018-02-03T06:12:50.069Z,10.13
2018-02-03T06:15:18.509Z,10.10
2018-02-03T06:17:46.984Z,10.07
2018-02-03T06:20:15.415Z,10.15
2018-02-03T06:22:43.959Z,9.83
2018-02-03T06:25:12.430Z,9.69
2018-02-03T06:27:40.937Z,9.90
2018-02-03T06:30:09.372Z,9.78
2018-02-03T06:32:37.831Z,9.73
2018-02-03T06:35:06.376Z,9.88
2018-02-03T06:37:34.836Z,9.92
2018-02-03T06:40:03.322Z,9.88
2018-02-03T06:42:31.743Z,9.44
2018-02-03T06:45:00.201Z,9.37
2018-02-03T06:47:28.721Z,9.62
2018-02-03T06:49:57.652Z,9.24
2018-02-03T06:52:26.139Z,9.32
2018-02-03T06:54:54.624Z,9.44
2018-02-03T06:57:23.096Z,9.34
2018-02-03T06:59:51.594Z,9.27
2018-02-03T07:02:20.035Z,9.16
2018-02-03T07:04:48.860Z,9.32
2018-02-03T07:07:17.323Z,9.29
2018-02-03T07:09:45.767Z,9.17
2018-02-03T07:12:15.388Z,9.26
2018-02-03T07:14:44.223Z,9.10
2018-02-03T07:17:12.643Z,9.42
2018-02-03T07:19:41.092Z,9.37
2018-02-03T07:22:09.520Z,9.40
2018-02-03T07:24:38.339Z,9.57
2018-02-03T07:27:06.828Z,9.86
2018-02-03T07:29:35.264Z,9.82
2018-02-03T07:32:04.099Z,9.59
2018-02-03T07:34:32.516Z,9.79
2018-02-03T07:37:00.956Z,9.60
2018-02-03T07:39:29.553Z,9.72
2018-02-03T07:41:57.984Z,9.75
2018-02-03T07:44:26.808Z,9.62
2018-02-03T07:46:55.281Z,9.78
2018-02-03T07:49:23.721Z,9.95
2018-02-03T07:51:52.553Z,9.71
2018-02-03T07:54:20.987Z,9.83
2018-02-03T07:56:49.528Z,10.08
2018-02-03T07:59:18.104Z,10.36
2018-02-03T08:01:46.540Z,10.35
2018-02-03T08:04:15.480Z,10.45
2018-02-03T08:06:44.768Z,10.53
2018-02-03T08:09:13.199Z,10.57
2018-02-03T08:11:41.629Z,10.40
2018-02-03T08:14:10.137Z,10.41
2018-02-03T08:16:38.692Z,10.24
2018-02-03T08:19:07.188Z,9.86
2018-02-03T08:21:35.657Z,9.87
2018-02-03T08:24:04.094Z,9.55
2018-02-03T08:26:32.520Z,9.65
2018-02-03T08:29:00.991Z,9.62
2018-02-03T08:31:29.411Z,9.67
2018-02-03T08:33:57.856Z,9.64
2018-02-03T08:36:26.326Z,9.69
2018-02-03T08:38:54.743Z,9.63
2018-02-03T08:41:23.120Z,9.87
2018-02-03T08:43:51.466Z,9.49
2018-02-03T08:46:20.203Z,9.24
2018-02-03T08:48:48.536Z,8.82
2018-02-03T08:51:16.922Z,9.16
2018-02-03T08:53:45.382Z,8.98
2018-02-03T08:56:14.115Z,9.03
2018-02-03T08:58:42.460Z,9.30
2018-02-03T09:01:10.878Z,9.37
2018-02-03T09:03:39.255Z,9.18
2018-02-03T09:06:07.623Z,9.41
2018-02-03T09:08:35.981Z,9.41
2018-02-03T09:11:04.352Z,9.49
2018-02-03T09:13:32.688Z,9.33
2018-02-03T09:16:01.040Z,9.00
2018-02-03T09:18:29.421Z,9.01
2018-02-03T09:20:57.800Z,9.03
2018-02-03T09:23:26.137Z,9.42
2018-02-03T09:25:54.559Z,9.37
2018-02-03T09:28:23.019Z,9.33
2018-02-03T09:30:51.430Z,9.70
2018-02-03T09:33:19.811Z,9.52
2018-02-03T09:35:48.211Z,9.53
2018-02-03T09:38:16.655Z,9.34
2018-02-03T09:40:44.992Z,9.09
2018-02-03T09:43:13.800Z,9.33
2018-02-03T09:45:42.146Z,9.32
2018-02-03T09:48:10.892Z,9.28
2018-02-03T09:50:39.246Z,8.96
2018-02-03T09:53:07.628Z,8.99
2018-02-03T09:55:36.884Z,9.20
2018-02-03T09:58:05.327Z,9.01
2018-02-03T10:00:33.751Z,8.93
2018-02-03T10:03:02.500Z,9.25
2018-02-03T10:05:30.878Z,9.44
2018-02-03T10:07:59.251Z,9.62
2018-02-03T10:10:27.595Z,9.31
2018-02-03T10:12:55.940Z,8.91
2018-02-03T10:15:24.282Z,8.75
2018-02-03T10:17:52.667Z,8.56
2018-02-03T10:20:21.096Z,8.45
2018-02-03T10:22:49.933Z,9.04
2018-02-03T10:25:18.312Z,9.17
2018-02-03T10:27:46.658Z,8.83
2018-02-03T10:30:15.064Z,8.84
2018-02-03T10:32:43.452Z,8.39
2018-02-03T10:35:11.807Z,8.77
2018-02-03T10:37:40.202Z,8.87
2018-02-03T10:40:08.658Z,8.57
2018-02-03T10:42:37.003Z,8.61
2018-02-03T10:45:05.360Z,8.76
2018-02-03T10:47:33.713Z,8.83
2018-02-03T10:50:02.080Z,8.34
2018-02-03T10:52:30.450Z,8.23
2018-02-03T10:54:58.792Z,7.88
2018-02-03T10:57:27.125Z,8.36
2018-02-03T10:59:55.468Z,8.41
2018-02-03T11:02:24.305Z,8.21
2018-02-03T11:04:52.672Z,8.64
2018-02-03T11:07:21.064Z,8.90
2018-02-03T11:09:49.491Z,8.85
2018-02-03T11:12:18.339Z,8.79
2018-02-03T11:14:46.760Z,8.52
2018-02-03T11:17:15.603Z,8.34
2018-02-03T11:19:43.990Z,8.38
2018-02-03T11:22:12.558Z,7.83
2018-02-03T11:24:41.050Z,8.18
2018-02-03T11:27:09.401Z,8.19
2018-02-03T11:29:37.753Z,8.48
2018-02-03T11:32:06.583Z,8.96
2018-02-03T11:34:34.929Z,9.35
2018-02-03T11:37:03.286Z,9.55
2018-02-03T11:39:31.650Z,9.78
2018-02-03T11:42:00.103Z,9.58
2018-02-03T11:44:28.449Z,8.74
2018-02-03T11:46:56.892Z,8.91
2018-02-03T11:49:25.228Z,8.98
2018-02-03T11:51:53.644Z,8.98
2018-02-03T11:54:22.020Z,8.99
2018-02-03T11:56:50.392Z,9.16
2018-02-03T11:59:18.755Z,9.07
2018-02-03T12:01:47.141Z,9.15
2018-02-03T12:04:15.494Z,8.88
2018-02-03T12:06:43.841Z,8.90
2018-02-03T12:09:12.215Z,9.29
2018-02-03T12:11:41.107Z,9.22
2018-02-03T12:14:09.956Z,8.78
2018-02-03T12:16:38.848Z,9.00
2018-02-03T12:19:07.225Z,9.05
2018-02-03T12:21:35.612Z,8.91
2018-02-03T12:24:03.959Z,9.37
2018-02-03T12:26:32.340Z,9.62
2018-02-03T12:29:02.675Z,9.57
2018-02-03T12:31:31.048Z,9.89
2018-02-03T12:33:59.396Z,9.64
2018-02-03T12:36:27.798Z,9.36
2018-02-03T12:38:56.187Z,9.53
2018-02-03T12:41:24.520Z,9.74
2018-02-03T12:43:54.304Z,9.39
2018-02-03T12:46:22.642Z,9.13
2018-02-03T12:48:50.987Z,9.22
2018-02-03T12:51:19.829Z,9.53
2018-02-03T12:53:48.179Z,9.55
2018-02-03T12:56:16.574Z,9.46
2018-02-03T12:58:44.964Z,9.26
2018-02-03T13:01:13.388Z,9.74
2018-02-03T13:03:42.144Z,9.73
2018-02-03T13:06:10.520Z,9.85
2018-02-03T13:08:38.911Z,10.00
2018-02-03T13:11:08.272Z,10.01
2018-02-03T13:13:36.634Z,9.45
2018-02-03T13:16:05.359Z,9.36
2018-02-03T13:18:34.522Z,9.25
2018-02-03T13:21:02.867Z,9.17
2018-02-03T13:23:31.207Z,9.07
2018-02-03T13:25:59.828Z,9.07
2018-02-03T13:28:28.279Z,9.26
2018-02-03T13:30:56.666Z,9.16
2018-02-03T13:33:25.058Z,8.94
2018-02-03T13:35:53.518Z,9.03
2018-02-03T13:38:21.871Z,9.27
2018-02-03T13:40:50.275Z,9.20
2018-02-03T13:43:18.628Z,9.56
2018-02-03T13:45:47.724Z,9.85
2018-02-03T13:48:16.135Z,9.31
2018-02-03T13:50:44.484Z,9.15
2018-02-03T13:53:12.884Z,9.19
2018-02-03T13:55:41.244Z,8.81
2018-02-03T13:58:09.587Z,8.84
2018-02-03T14:00:38.404Z,9.07
2018-02-03T14:03:06.803Z,9.14
2018-02-03T14:05:35.207Z,8.85
2018-02-03T14:08:03.568Z,8.98
2018-02-03T14:10:31.950Z,9.06
2018-02-03T14:13:00.320Z,8.79
2018-02-03T14:15:28.642Z,8.85
2018-02-03T14:17:57.386Z,9.05
2018-02-03T14:20:25.768Z,9.12
2018-02-03T14:22:54.145Z,9.32
2018-02-03T14:25:22.497Z,9.26
2018-02-03T14:27:50.832Z,8.85
2018-02-03T14:30:19.368Z,8.87
2018-02-03T14:32:47.776Z,9.00
2018-02-03T14:35:16.148Z,8.80
2018-02-03T14:37:44.501Z,8.71
2018-02-03T14:40:12.934Z,8.80
2018-02-03T14:42:41.700Z,8.49
2018-02-03T14:45:10.172Z,8.48
2018-02-03T14:47:38.614Z,8.68
2018-02-03T14:50:06.956Z,8.63
2018-02-03T14:52:35.295Z,8.55
2018-02-03T14:55:03.653Z,8.34
2018-02-03T14:57:32.065Z,8.42
2018-02-03T15:00:00.442Z,8.24
2018-02-03T15:02:28.804Z,8.55
2018-02-03T15:04:57.131Z,8.11
2018-02-03T15:07:25.504Z,8.25
2018-02-03T15:09:53.844Z,8.06
2018-02-03T15:12:22.289Z,7.98
2018-02-03T15:14:51.051Z,8.20
2018-02-03T15:17:19.393Z,7.83
2018-02-03T15:19:47.774Z,8.28
2018-02-03T15:22:16.111Z,8.50
2018-02-03T15:24:44.850Z,8.23
2018-02-03T15:27:13.207Z,7.88
2018-02-03T15:29:41.549Z,7.72
2018-02-03T15:32:10.428Z,8.03
2018-02-03T15:34:38.775Z,7.96
2018-02-03T15:37:07.111Z,8.29
2018-02-03T15:39:35.533Z,8.14
2018-02-03T15:42:03.919Z,8.23
2018-02-03T15:44:32.388Z,7.52
2018-02-03T15:47:00.748Z,7.39
2018-02-03T15:49:29.100Z,7.42
2018-02-03T15:51:57.936Z,7.50
2018-02-03T15:54:26.284Z,7.58
2018-02-03T15:56:55.135Z,7.95
2018-02-03T15:59:23.494Z,8.02
2018-02-03T16:01:51.840Z,8.25
2018-02-03T16:04:20.188Z,8.35
2018-02-03T16:06:48.932Z,8.56
2018-02-03T16:09:17.296Z,8.31
2018-02-03T16:11:45.646Z,8.12
2018-02-03T16:14:14.062Z,7.80
2018-02-03T16:16:42.414Z,7.43
2018-02-03T16:19:10.815Z,7.58
2018-02-03T16:21:39.175Z,7.43
2018-02-03T16:24:07.515Z,7.27
2018-02-03T16:26:36.251Z,7.28
2018-02-03T16:29:04.596Z,7.55
2018-02-03T16:31:33.464Z,7.63
2018-02-03T16:34:02.220Z,8.08
2018-02-03T16:36:30.595Z,8.00
2018-02-03T16:38:58.939Z,8.31
2018-02-03T16:41:27.292Z,8.23
2018-02-03T16:43:55.632Z,8.16
2018-02-03T16:46:24.265Z,8.30
2018-02-03T16:48:53.189Z,8.12
2018-02-03T16:51:21.572Z,8.11
2018-02-03T16:53:49.991Z,7.86
2018-02-03T16:56:24.996Z,8.13
2018-02-03T16:58:53.481Z,7.96
2018-02-03T17:01:21.855Z,8.15
2018-02-03T17:03:50.384Z,8.14
2018-02-03T17:06:19.229Z,6.23
2018-02-03T17:08:47.784Z,6.62
2018-02-03T17:11:16.131Z,6.42
2018-02-03T17:13:44.551Z,6.51
2018-02-03T17:16:12.896Z,6.32
2018-02-03T17:18:41.673Z,6.09
2018-02-03T17:21:10.016Z,6.02
2018-02-03T17:23:38.380Z,6.72
2018-02-03T17:26:06.732Z,7.17
2018-02-03T17:28:35.157Z,7.59
2018-02-03T17:31:03.508Z,7.66
2018-02-03T17:33:31.880Z,7.73
2018-02-03T17:36:00.224Z,7.36
2018-02-03T17:38:34.202Z,7.11
2018-02-03T17:41:02.655Z,6.92
2018-02-03T17:43:31.149Z,7.22
2018-02-03T17:46:05.071Z,6.92
2018-02-03T17:48:33.412Z,6.61
2018-02-03T17:51:01.768Z,6.72
2018-02-03T17:53:30.507Z,6.61
2018-02-03T17:56:04.294Z,6.73
2018-02-03T17:58:32.696Z,7.02
2018-02-03T18:01:01.041Z,6.06
2018-02-03T18:03:29.418Z,5.82
2018-02-03T18:05:57.832Z,5.59
2018-02-03T18:08:26.197Z,5.56
2018-02-03T18:10:54.584Z,5.56
2018-02-03T18:13:22.936Z,5.96
2018-02-03T18:15:51.293Z,6.08
2018-02-03T18:18:20.243Z,6.30
2018-02-03T18:20:48.622Z,6.53
2018-02-03T18:23:16.959Z,6.46
2018-02-03T18:25:45.300Z,6.44
2018-02-03T18:28:13.666Z,6.17
2018-02-03T18:30:42.015Z,5.91
2018-02-03T18:33:10.375Z,5.62
2018-02-03T18:35:38.783Z,5.58
2018-02-03T18:38:07.144Z,5.59
2018-02-03T18:40:35.563Z,5.50
2018-02-03T18:43:04.343Z,5.68
2018-02-03T18:45:44.361Z,6.03
2018-02-03T18:48:12.859Z,5.62
2018-02-03T18:50:41.245Z,5.66
2018-02-03T18:53:09.603Z,6.07
2018-02-03T18:55:37.963Z,5.82
2018-02-03T18:58:06.376Z,5.94
2018-02-03T19:00:34.724Z,5.71
2018-02-03T19:03:03.081Z,5.75
2018-02-03T19:05:31.936Z,6.27
2018-02-03T19:08:00.299Z,5.81
2018-02-03T19:10:28.867Z,5.58
2018-02-03T19:12:57.269Z,5.18
2018-02-03T19:15:25.609Z,5.82
2018-02-03T19:17:54.032Z,5.73
2018-02-03T19:20:22.377Z,6.31
2018-02-03T19:22:50.747Z,6.54
2018-02-03T19:25:19.090Z,6.43
2018-02-03T19:27:47.473Z,6.52
2018-02-03T19:30:15.876Z,6.47
2018-02-03T19:32:44.804Z,6.40
2018-02-03T19:35:13.173Z,6.07
2018-02-03T19:37:41.519Z,6.28
2018-02-03T19:40:09.866Z,5.84
2018-02-03T19:42:38.626Z,6.24
2018-02-03T19:45:06.975Z,6.26
2018-02-03T19:47:35.392Z,5.94
2018-02-03T19:50:03.734Z,6.02
2018-02-03T19:52:32.093Z,6.13
2018-02-03T19:55:00.851Z,6.51
2018-02-03T19:57:29.227Z,6.26
2018-02-03T19:59:57.600Z,6.03
2018-02-03T20:02:25.949Z,6.40
2018-02-03T20:04:54.292Z,6.29
2018-02-03T20:07:23.144Z,6.23
2018-02-03T20:09:51.498Z,5.74
2018-02-03T20:12:19.864Z,6.17
2018-02-03T20:14:48.239Z,6.25
2018-02-03T20:17:16.660Z,6.26
2018-02-03T20:19:45.040Z,6.61
2018-02-03T20:22:13.395Z,6.99
2018-02-03T20:24:41.808Z,7.18
2018-02-03T20:27:10.160Z,7.06
2018-02-03T20:29:38.515Z,7.32
2018-02-03T20:32:06.884Z,7.34
2018-02-03T20:34:35.231Z,7.28
2018-02-03T20:37:03.709Z,7.11
2018-02-03T20:39:32.108Z,7.19
2018-02-03T20:42:00.956Z,6.57
2018-02-03T20:44:29.336Z,6.37
2018-02-03T20:46:57.703Z,6.80
2018-02-03T20:49:26.072Z,6.78
2018-02-03T20:51:54.415Z,6.88
2018-02-03T20:54:23.255Z,7.29
2018-02-03T20:56:51.635Z,7.37
2018-02-03T20:59:19.979Z,7.17
2018-02-03T21:01:48.745Z,7.38
2018-02-03T21:04:17.480Z,7.32
2018-02-03T21:06:45.837Z,7.44
2018-02-03T21:09:14.251Z,7.44
2018-02-03T21:11:42.658Z,7.52
2018-02-03T21:14:10.981Z,7.57
2018-02-03T21:16:39.388Z,7.56
2018-02-03T21:19:07.760Z,7.60
2018-02-03T21:21:36.221Z,7.47
2018-02-03T21:24:04.615Z,7.09
2018-02-03T21:26:32.974Z,7.38
2018-02-03T21:29:01.375Z,6.98
2018-02-03T21:31:29.735Z,7.11
2018-02-03T21:33:58.175Z,7.18
2018-02-03T21:36:26.513Z,7.08
2018-02-03T21:38:54.884Z,7.11
2018-02-03T21:41:23.232Z,7.21
2018-02-03T21:43:51.976Z,6.81
2018-02-03T21:46:20.323Z,6.84
2018-02-03T21:48:48.701Z,6.86
2018-02-03T21:51:17.073Z,6.78
2018-02-03T21:53:45.477Z,6.91
2018-02-03T21:56:13.820Z,6.68
2018-02-03T21:58:42.239Z,6.68
2018-02-03T22:01:10.711Z,6.42
2018-02-03T22:03:39.098Z,5.43
2018-02-03T22:06:07.468Z,5.36
2018-02-03T22:08:35.825Z,5.55
2018-02-03T22:11:04.178Z,5.65
2018-02-03T22:13:32.661Z,5.89
2018-02-03T22:16:01.497Z,6.32
2018-02-03T22:18:29.867Z,6.36
2018-02-03T22:20:58.212Z,6.42
2018-02-03T22:23:26.971Z,6.71
2018-02-03T22:25:55.327Z,5.71
2018-02-03T22:28:23.706Z,6.13
2018-02-03T22:30:52.056Z,6.47
2018-02-03T22:33:20.495Z,6.60
2018-02-03T22:35:48.965Z,6.33
2018-02-03T22:38:17.315Z,6.85
2018-02-03T22:40:45.708Z,6.82
2018-02-03T22:43:14.182Z,6.44
2018-02-03T22:45:42.528Z,6.29
2018-02-03T22:48:11.040Z,6.50
2018-02-03T22:50:39.384Z,5.95
2018-02-03T22:53:07.748Z,6.06
2018-02-03T22:55:36.499Z,6.49
2018-02-03T22:58:04.852Z,6.18
2018-02-03T23:00:35.706Z,6.06
2018-02-03T23:03:01.728Z,6.18
2018-02-03T23:05:30.086Z,6.10
2018-02-03T23:07:58.455Z,6.05
2018-02-03T23:10:26.806Z,6.47
2018-02-03T23:12:55.585Z,6.49
2018-02-03T23:15:23.925Z,6.44
2018-02-03T23:17:52.318Z,6.53
2018-02-03T23:20:20.671Z,6.53
2018-02-03T23:22:49.029Z,6.45
2018-02-03T23:25:17.457Z,6.38
2018-02-03T23:27:45.828Z,6.72
2018-02-03T23:30:14.185Z,6.29
2018-02-03T23:32:42.576Z,5.99
2018-02-03T23:35:10.960Z,6.30
2018-02-03T23:37:39.852Z,6.66
2018-02-03T23:40:08.228Z,6.78
2018-02-03T23:42:36.576Z,6.60
2018-02-03T23:45:04.955Z,6.34
2018-02-03T23:47:33.361Z,6.47
2018-02-03T23:50:01.748Z,6.55
2018-02-03T23:52:30.107Z,6.06
2018-02-03T23:54:58.460Z,6.04
2018-02-03T23:57:26.868Z,6.68
2018-02-03T23:59:55.219Z,5.85
